Flight Track Log - Related Links

Times and Time Zones

All times are in EDT time to prevent confusion due to time zone crossing. See the TCF3451 flight status page for this flight to view local times or setup timezone preferences in your user account.

Time Position Orientation Groundspeed Altitude Reporting Facility
EDT Latitude Longitude Course Direction KTS MPH feet Rate Location/Type
Fri 02:38:52 PM 32.9167 -97.0333 360° North 145 167 1,200  Level Dallas TRACON
Fri 02:39:23 PM 32.9333 -97.0333 North 154 177 2,300 2,000 Climbing Dallas TRACON
Fri 02:40:04 PM 32.9603 -97.0283 North 156 180 3,600 2,097 Climbing Fort Center
Fri 02:41:06 PM 33.0192 -97.0272 North 196 226 5,900 2,274 Climbing Fort Center
Fri 02:42:08 PM 33.0814 -96.9944 24° Northeast 270 311 8,300 1,984 Climbing Fort Center
Fri 02:43:10 PM 33.0906 -96.8856 84° East 311 358 10,000 816 Climbing Fort Center
Fri 02:44:13 PM 33.0889 -96.7683 91° East 341 392 10,000 720 Level Fort Center
Fri 02:45:15 PM 33.0872 -96.6536 91° East 344 396 11,500 1,742 Climbing Fort Center
Fri 02:46:17 PM 33.0853 -96.5239 91° East 387 445 13,600 2,226 Climbing Fort Center
Fri 02:47:19 PM 33.0828 -96.3806 91° East 399 459 16,100 2,177 Climbing Fort Center
Fri 02:48:21 PM 33.1067 -96.2489 78° East 407 468 18,100 1,887 Climbing Fort Center
Fri 02:49:23 PM 33.1489 -96.1083 70° East 415 478 20,000 1,790 Climbing Fort Center
Fri 02:50:25 PM 33.1886 -95.9717 71° East 431 496 21,800 1,645 Climbing Fort Center
Fri 02:51:27 PM 33.2325 -95.8208 71° East 445 512 23,400 1,392 Climbing Fort Center
Fri 02:52:30 PM 33.2758 -95.6764 70° East 447 514 24,700 1,200 Climbing Fort Center
Fri 02:53:32 PM 33.3153 -95.5358 71° East 469 540 25,900 1,161 Climbing Fort Center
Fri 02:54:34 PM 33.3589 -95.3853 71° East 476 548 27,100 1,065 Climbing Fort Center
Fri 02:55:36 PM 33.4025 -95.2322 71° East 484 557 28,100 919 Climbing Fort Center
Fri 02:56:38 PM 33.4472 -95.0761 71° East 493 567 29,000 871 Climbing Fort Center
Fri 02:57:40 PM 33.5025 -94.8839 71° East 508 585 29,900 968 Climbing Fort Center
Fri 02:58:42 PM 33.5489 -94.7222 71° East 511 588 31,000 1,016 Climbing Fort Center
Fri 02:59:44 PM 33.5931 -94.5622 72° East 510 587 32,000 816 Climbing Fort Center
Fri 03:00:47 PM 33.6400 -94.4014 71° East 510 587 32,700 480 Climbing Fort Center
Fri 03:01:49 PM 33.6872 -94.2350 71° East 523 602 33,000 145 Climbing Fort Center
Fri 03:02:51 PM 33.7575 -94.0825 61° Northeast 522 601 33,000  Level Fort Center
Fri 03:03:53 PM 33.8311 -93.9333 59° Northeast 519 597 33,000  Level Fort Center
Fri 03:04:55 PM 33.9186 -93.7539 60° Northeast 518 596 33,000  Level Fort Center
Fri 03:05:57 PM 33.9914 -93.6058 59° Northeast 517 595 33,000  Level Fort Center
Fri 03:06:59 PM 34.0639 -93.4581 59° Northeast 515 593 33,000  Level Fort Center
Fri 03:07:40 PM 34.1078 -93.3700 59° Northeast 514 592 33,000  Level Memphis Center
Fri 03:08:42 PM 34.1789 -93.2219 60° Northeast 514 592 33,000  Level Memphis Center
Fri 03:09:44 PM 34.2658 -93.0450 59° Northeast 513 590 33,000  Level Memphis Center
Fri 03:10:46 PM 34.3306 -92.9094 60° Northeast 512 589 33,000  Level Memphis Center
Fri 03:11:48 PM 34.4133 -92.7750 53° Northeast 501 577 33,000  Level Memphis Center
Fri 03:12:50 PM 34.5278 -92.6281 47° Northeast 499 574 33,000  Level Memphis Center
Fri 03:13:52 PM 34.6211 -92.5019 48° Northeast 500 575 33,000  Level Memphis Center
Fri 03:14:54 PM 34.7147 -92.3767 48° Northeast 502 578 33,000  Level Memphis Center
Fri 03:15:57 PM 34.8081 -92.2514 48° Northeast 502 578 33,000  Level Memphis Center
Fri 03:16:59 PM 34.9028 -92.1242 48° Northeast 504 580 33,000  Level Memphis Center
Fri 03:18:01 PM 35.0153 -91.9719 48° Northeast 507 583 33,000  Level Memphis Center
Fri 03:19:03 PM 35.1078 -91.8439 49° Northeast 506 582 33,000  Level Memphis Center
Fri 03:20:05 PM 35.2025 -91.7158 48° Northeast 507 583 33,000  Level Memphis Center
Fri 03:21:07 PM 35.2961 -91.5864 48° Northeast 507 583 33,000  Level Memphis Center
Fri 03:22:09 PM 35.3917 -91.4544 48° Northeast 512 589 33,000  Level Memphis Center
Fri 03:23:11 PM 35.4950 -91.3122 48° Northeast 516 594 33,000  Level Memphis Center
Fri 03:24:13 PM 35.5919 -91.1783 48° Northeast 520 598 33,000  Level Memphis Center
Fri 03:25:15 PM 35.6956 -91.0322 49° Northeast 522 601 33,000  Level Memphis Center
Fri 03:26:18 PM 35.7922 -90.8967 49° Northeast 524 603 33,000  Level Memphis Center
Fri 03:27:20 PM 35.8892 -90.7625 48° Northeast 524 603 33,000  Level Memphis Center
Fri 03:28:22 PM 36.0047 -90.5992 49° Northeast 524 603 33,000  Level Memphis Center
Fri 03:29:24 PM 36.1000 -90.4631 49° Northeast 524 603 33,000  Level Memphis Center
Fri 03:30:26 PM 36.1950 -90.3278 49° Northeast 523 602 33,000  Level Memphis Center
Fri 03:31:28 PM 36.2900 -90.1900 49° Northeast 523 602 33,000  Level Memphis Center
Fri 03:32:30 PM 36.3858 -90.0547 49° Northeast 523 602 33,000  Level Memphis Center
Fri 03:33:32 PM 36.4817 -89.9169 49° Northeast 523 602 33,000  Level Memphis Center
Fri 03:34:34 PM 36.5769 -89.7778 50° Northeast 523 602 33,000  Level Memphis Center
Fri 03:35:36 PM 36.6933 -89.6108 49° Northeast 523 602 33,000  Level Memphis Center
Fri 03:36:39 PM 36.7883 -89.4706 50° Northeast 523 602 33,000  Level Memphis Center
Fri 03:37:41 PM 36.8839 -89.3311 49° Northeast 523 602 33,000  Level Memphis Center
Fri 03:38:43 PM 36.9789 -89.1908 50° Northeast 523 602 33,000  Level Memphis Center
Fri 03:39:45 PM 37.0742 -89.0511 49° Northeast 524 603 33,000  Level Memphis Center
Fri 03:40:47 PM 37.1694 -88.9111 49° Northeast 524 603 33,000  Level Memphis Center
Fri 03:41:49 PM 37.2644 -88.7686 50° Northeast 527 606 33,000  Level Memphis Center
Fri 03:42:51 PM 37.3772 -88.5975 50° Northeast 527 606 33,000  Level Memphis Center
Fri 03:43:53 PM 37.4731 -88.4564 49° Northeast 528 608 33,000  Level Memphis Center
Fri 03:44:55 PM 37.5675 -88.3125 50° Northeast 529 609 33,000  Level Memphis Center
Fri 03:45:57 PM 37.6617 -88.1681 51° Northeast 530 610 33,000  Level Memphis Center
Fri 03:46:28 PM 37.7044 -88.1039 50° Northeast 529 609 33,000  Level Indianapolis Center
Fri 03:47:30 PM 37.7767 -87.9264 63° Northeast 533 613 33,000  Level Indianapolis Center
Fri 03:48:32 PM 37.8450 -87.7539 63° Northeast 541 623 33,000  Level Indianapolis Center
Fri 03:49:34 PM 37.9275 -87.5506 63° Northeast 541 623 33,000  Level Indianapolis Center
Fri 03:50:36 PM 37.9978 -87.3825 62° Northeast 541 623 33,000  Level Indianapolis Center
Fri 03:51:39 PM 38.0706 -87.2150 61° Northeast 541 623 33,000 -48 Level Indianapolis Center
Fri 03:52:41 PM 38.1583 -87.0608 54° Northeast 543 625 32,900 -532 Descending Indianapolis Center
Fri 03:53:43 PM 38.2489 -86.9136 52° Northeast 543 625 31,900 -919 Descending Indianapolis Center
Fri 03:54:45 PM 38.3603 -86.7317 52° Northeast 546 628 31,000 -435 Descending Indianapolis Center
Fri 03:55:47 PM 38.4533 -86.5803 52° Northeast 546 628 31,000  Level Indianapolis Center
Fri 03:56:49 PM 38.5483 -86.4264 52° Northeast 546 628 31,000  Level Indianapolis Center
Fri 03:57:51 PM 38.6422 -86.2733 52° Northeast 546 628 31,000  Level Indianapolis Center
Fri 03:58:53 PM 38.7372 -86.1164 52° Northeast 551 634 31,000  Level Indianapolis Center
Fri 03:59:55 PM 38.8322 -85.9583 52° Northeast 552 635 31,000  Level Indianapolis Center
Fri 04:00:57 PM 38.9286 -85.7956 53° Northeast 557 641 31,000  Level Indianapolis Center
Fri 04:01:59 PM 39.0414 -85.6053 53° Northeast 558 642 31,000  Level Indianapolis Center
Fri 04:03:02 PM 39.1372 -85.4450 52° Northeast 564 649 31,000  Level Indianapolis Center
Fri 04:04:04 PM 39.2325 -85.2825 53° Northeast 568 654 31,000  Level Indianapolis Center
Fri 04:05:06 PM 39.3303 -85.1194 52° Northeast 572 658 31,000  Level Indianapolis Center
Fri 04:06:08 PM 39.4258 -84.9553 53° Northeast 573 659 31,000  Level Indianapolis Center
Fri 04:07:10 PM 39.5289 -84.7747 53° Northeast 575 662 31,000  Level Indianapolis Center
Fri 04:08:12 PM 39.6258 -84.6100 53° Northeast 575 662 31,000  Level Indianapolis Center
Fri 04:09:14 PM 39.7400 -84.4100 53° Northeast 575 662 31,000  Level Indianapolis Center
Fri 04:10:16 PM 39.8356 -84.2425 53° Northeast 575 662 31,000  Level Indianapolis Center
Fri 04:11:18 PM 39.9303 -84.0742 54° Northeast 575 662 31,000  Level Indianapolis Center
Fri 04:12:20 PM 40.0269 -83.9044 53° Northeast 575 662 31,000  Level Indianapolis Center
Fri 04:13:23 PM 40.1231 -83.7322 54° Northeast 576 663 31,000  Level Indianapolis Center
Fri 04:14:25 PM 40.2189 -83.5608 54° Northeast 577 664 31,000  Level Indianapolis Center
Fri 04:15:27 PM 40.3131 -83.3900 54° Northeast 577 664 31,000  Level Indianapolis Center
Fri 04:16:29 PM 40.4081 -83.2192 54° Northeast 577 664 31,000  Level Indianapolis Center
Fri 04:17:31 PM 40.5206 -83.0122 54° Northeast 577 664 31,000  Level Indianapolis Center
Fri 04:18:33 PM 40.6067 -82.8569 54° Northeast 577 664 31,000  Level Indianapolis Center
Fri 04:19:35 PM 40.7017 -82.6825 54° Northeast 577 664 31,000  Level Indianapolis Center
Fri 04:20:24 PM 40.7797 -82.5394 54° Northeast 577 664 31,000  Level Cleveland Center
Fri 04:21:27 PM 40.8711 -82.3667 55° Northeast 572 658 31,000  Level Cleveland Center
Fri 04:22:29 PM 40.9786 -82.1675 54° Northeast 571 657 31,000  Level Cleveland Center
Fri 04:23:31 PM 41.0683 -81.9958 55° Northeast 568 654 31,000  Level Cleveland Center
Fri 04:24:33 PM 41.1178 -81.8033 71° East 558 642 31,000  Level Cleveland Center
Fri 04:25:35 PM 41.1408 -81.6108 81° East 545 627 31,000  Level Cleveland Center
Fri 04:26:37 PM 41.1675 -81.3833 81° East 537 618 31,000  Level Cleveland Center
Fri 04:27:39 PM 41.1892 -81.1886 82° East 534 615 31,000  Level Cleveland Center
Fri 04:28:41 PM 41.2119 -80.9953 81° East 531 611 31,000  Level Cleveland Center
Fri 04:29:44 PM 41.2336 -80.7992 82° East 532 612 31,000  Level Cleveland Center
Fri 04:30:46 PM 41.2553 -80.6031 82° East 532 612 31,000  Level Cleveland Center
Fri 04:31:48 PM 41.2769 -80.4044 82° East 535 616 31,000  Level Cleveland Center
Fri 04:32:50 PM 41.2981 -80.2058 82° East 535 616 31,000  Level Cleveland Center
Fri 04:33:52 PM 41.3183 -80.0128 82° East 532 612 31,000  Level Cleveland Center
Fri 04:34:54 PM 41.3408 -79.8100 82° East 529 609 31,000  Level Cleveland Center
Fri 04:35:56 PM 41.3683 -79.5958 80° East 512 589 31,000  Level Cleveland Center
Fri 04:36:58 PM 41.4675 -79.4483 48° Northeast 520 598 31,000  Level Cleveland Center
Fri 04:38:00 PM 41.5886 -79.3486 32° Northeast 516 594 31,000  Level Cleveland Center
Fri 04:39:03 PM 41.7242 -79.2403 31° Northeast 517 595 31,000  Level Cleveland Center
Fri 04:40:05 PM 41.7922 -79.0761 61° Northeast 512 589 31,000  Level Cleveland Center
Fri 04:41:07 PM 41.7703 -78.9089 100° East 465 535 31,000  Level Cleveland Center
Fri 04:42:09 PM 41.6872 -78.7650 128° Southeast 436 502 31,000  Level Cleveland Center
Fri 04:43:11 PM 41.6428 -78.5989 110° East 478 550 31,000  Level Cleveland Center
Fri 04:44:13 PM 41.6075 -78.4250 105° East 480 552 31,000  Level Cleveland Center
Fri 04:45:15 PM 41.5719 -78.2525 105° East 480 552 31,000  Level Cleveland Center
Fri 04:46:17 PM 41.5350 -78.0778 106° East 486 559 31,000  Level Cleveland Center
Fri 04:47:19 PM 41.5022 -77.9006 104° East 488 562 31,000  Level Cleveland Center
Fri 04:48:22 PM 41.4725 -77.6858 100° East 491 565 31,000  Level Cleveland Center
Fri 04:49:24 PM 41.4475 -77.5083 101° East 491 565 31,000  Level Cleveland Center
Fri 04:50:26 PM 41.4211 -77.3322 101° East 489 563 31,000  Level Cleveland Center
Fri 04:51:28 PM 41.3950 -77.1536 101° East 490 564 31,000 -339 Level Cleveland Center
Fri 04:52:30 PM 41.3689 -76.9792 101° East 489 563 30,300 -1,258 Descending Cleveland Center
Fri 04:53:32 PM 41.3447 -76.8161 101° East 452 520 28,400 -1,895 Descending Cleveland Center
Fri 04:54:43 PM 41.2961 -76.6197 108° East 430 495 26,100 -1,878 Descending New Center
Fri 04:55:43 PM 41.2586 -76.4922 111° Southeast 413 475 24,300 -1,700 Descending New Center
Fri 04:56:43 PM 41.2236 -76.3514 108° East 407 468 22,700 -1,650 Descending New Center
Fri 04:57:43 PM 41.1844 -76.2103 110° East 402 463 21,000 -1,650 Descending New Center
Fri 04:58:43 PM 41.1486 -76.0781 110° East 394 453 19,400 -1,750 Descending New Center
Fri 04:59:43 PM 41.1150 -75.9458 109° East 389 448 17,500 -1,800 Descending New Center
Fri 05:00:43 PM 41.0792 -75.8111 109° East 358 412 15,800 -1,550 Descending New Center
Fri 05:01:43 PM 41.0483 -75.7014 110° East 332 382 14,400 -1,350 Descending New Center
Fri 05:02:43 PM 41.0211 -75.6058 111° Southeast 311 358 13,100 -1,000 Descending New Center
Fri 05:03:43 PM 40.9900 -75.4936 110° East 306 352 12,400 -900 Descending New Center
Fri 05:04:43 PM 40.9608 -75.3928 111° Southeast 292 336 11,300 -750 Descending New Center
Fri 05:05:43 PM 40.9333 -75.2947 110° East 287 330 10,900 -150 Descending New Center
Fri 05:06:43 PM 40.9075 -75.2081 111° Southeast 271 312 11,000 50 Climbing New Center
Fri 05:07:43 PM 40.8856 -75.1269 110° East 266 306 11,000  Level New Center
Fri 05:08:43 PM 40.8358 -75.1156 170° South 200 230 11,000  Level New Center
Fri 05:09:43 PM 40.8028 -75.1628 227° Southwest 153 176 11,000  Level New Center
Fri 05:10:43 PM 40.8253 -75.2328 293° West 184 212 11,000 -500 Level New Center
Fri 05:11:43 PM 40.8831 -75.1925 28° Northeast 189 217 10,000 -1,100 Descending New Center
Fri 05:12:43 PM 40.8678 -75.0956 102° East 188 216 8,800 -1,250 Descending New Center
Fri 05:13:43 PM 40.8342 -74.9892 113° Southeast 245 282 7,500 -900 Descending New Center
Fri 05:14:43 PM 40.7836 -75.0053 194° South 186 214 7,000 -250 Descending New Center
Fri 05:15:43 PM 40.8358 -75.0606 321° Northwest 58 67 7,000  Level New Center
Fri 05:16:43 PM 40.8700 -74.9750 62° Northeast 128 147 7,000  Level New Center
Fri 05:17:43 PM 40.8883 -74.8744 76° East 213 245 7,000  Level New Center
Fri 05:18:43 PM 40.9331 -74.7839 57° Northeast 263 303 7,000  Level New Center
Fri 05:19:43 PM 40.9525 -74.7000 73° East 263 303 7,000  Level New Center
Fri 05:20:43 PM 40.9767 -74.5994 72° East 263 303 7,000 -400 Level New Center
Fri 05:21:43 PM 40.9403 -74.5644 144° Southeast 172 198 6,200 -1,000 Descending New Center
Fri 05:22:43 PM 40.8836 -74.5750 188° South 161 185 5,000 -600 Descending New Center
Fri 05:23:43 PM 40.8397 -74.5836 188° South 181 208 5,000  Level New Center
Fri 05:24:43 PM 40.7850 -74.5942 188° South 181 208 5,000  Level New Center
Fri 05:25:43 PM 40.7389 -74.6028 188° South 181 208 5,000  Level New Center
Fri 05:26:43 PM 40.6847 -74.6106 186° South 181 208 5,000  Level New Center
Fri 05:27:43 PM 40.6364 -74.6214 190° South 181 208 5,000  Level New Center
Fri 05:28:43 PM 40.5817 -74.6322 189° South 181 208 5,000  Level New Center
Fri 05:30:30 PM 40.4833 -74.6500 188° South 187 215 5,000  Level New TRACON
Fri 05:31:30 PM 40.4333 -74.6500 180° South 189 217 5,000  Level New TRACON
Fri 05:32:30 PM 40.3833 -74.6167 153° Southeast 201 231 5,000 -100 Level New TRACON
Fri 05:33:30 PM 40.3833 -74.5500 90° East 215 247 4,800 -500 Descending New TRACON
Fri 05:34:30 PM 40.3833 -74.4667 90° East 217 250 4,000 -700 Descending New TRACON
Fri 05:35:30 PM 40.4000 -74.4167 66° East 184 212 3,400 -500 Descending New TRACON
Fri 05:36:30 PM 40.4333 -74.3667 49° Northeast 166 191 3,000 -200 Descending New TRACON
Fri 05:37:30 PM 40.4667 -74.3167 49° Northeast 169 194 3,000  Level New TRACON
Fri 05:38:24 PM 40.5000 -74.2833 37° Northeast 177 204 3,000  Level New TRACON
Fri 05:39:24 PM 40.5500 -74.2667 14° North 180 207 3,000 -400 Level New TRACON
Fri 05:40:24 PM 40.5833 -74.2333 37° Northeast 174 200 2,200 -850 Descending New TRACON
Fri 05:41:24 PM 40.6333 -74.2000 27° Northeast 143 165 1,300 -800 Descending New TRACON
Fri 05:42:24 PM 40.6667 -74.1833 21° North 131 151 600 -700 Descending New TRACON

Login

Don't have an account? Register now (free) for customized features, flight alerts, and more!